Portada
METAR-TAF:

METAR-TAF

Aeropuertos :

Aeropuerto de Eastmain River

Eastmain, Quebec, Canadá

latitud: 52-14N, longitud: 078-31W, altitud: 7 m

Observación

El informe se hizo hace 59 minutos, a las 18:00 UTC
Viento 11 kt del noroeste con ráfagas de 17 kt
Temperatura 8°C
Humedad 66%
Presión 1021 hPa
Visibilidad: 24.1 km
Escasas nubes a una altura de 4000 ft

METAR: CZEM 241800Z 31011G17KT 15SM FEW040 08/02 A3015 RMK CU1 SLP212

Hora: 14:59 (18:59 UTC)


TAF: falta

Observaciones y pronósticos meteorológicos de más de 4000 aeropuertos (mensajes METAR y TAF).

Los puntos amarillos y rojos representan las estaciones disponibles.

Ponga el ratón en el punto deseado para ver el nombre de la estación.

Haga clic para ver las observaciones y los pronósticos meteorológicos.

Para cambiar el mapa : haga clic en los botones verdes con una cruz de color negro para hacer un zoom, en el botón verde con un guión para alejar o en las flechas verdes para mapas adyacentes.


METAR-TAF: